createdAt,value
2018-10-19T00:00:38.957Z,80.25
2018-10-19T00:03:42.466Z,80.79
2018-10-19T00:06:50.106Z,81.50
2018-10-19T00:09:54.956Z,81.01
2018-10-19T00:12:58.447Z,81.33
2018-10-19T00:16:02.074Z,81.54
2018-10-19T00:19:06.087Z,81.38
2018-10-19T00:22:09.590Z,81.31
2018-10-19T00:25:13.141Z,81.18
2018-10-19T00:28:21.827Z,80.93
2018-10-19T00:31:25.330Z,80.80
2018-10-19T00:34:28.891Z,80.38
2018-10-19T00:37:32.507Z,80.31
2018-10-19T00:40:36.007Z,80.79
2018-10-19T00:43:39.552Z,80.34
2018-10-19T00:46:43.065Z,80.55
2018-10-19T00:49:46.598Z,80.88
2018-10-19T00:52:50.121Z,81.00
2018-10-19T00:55:53.656Z,81.49
2018-10-19T00:58:57.116Z,81.49
2018-10-19T01:02:00.665Z,80.77
2018-10-19T01:05:05.338Z,81.08
2018-10-19T01:08:09.604Z,81.09
2018-10-19T01:11:13.278Z,80.74
2018-10-19T01:14:16.761Z,81.10
2018-10-19T01:17:21.319Z,81.29
2018-10-19T01:20:25.001Z,81.45
2018-10-19T01:23:28.505Z,81.48
2018-10-19T01:26:32.039Z,81.30
2018-10-19T01:29:35.518Z,81.81
2018-10-19T01:32:39.370Z,81.67
2018-10-19T01:35:44.908Z,81.40
2018-10-19T01:38:49.400Z,81.50
2018-10-19T01:41:52.950Z,81.33
2018-10-19T01:44:56.471Z,81.46
2018-10-19T01:48:00.424Z,81.80
2018-10-19T01:51:04.066Z,81.39
2018-10-19T01:54:07.581Z,81.63
2018-10-19T01:57:11.089Z,81.87
2018-10-19T02:00:14.599Z,82.34
2018-10-19T02:03:18.199Z,81.70
2018-10-19T02:06:21.914Z,82.43
2018-10-19T02:09:25.352Z,82.15
2018-10-19T02:12:29.010Z,82.03
2018-10-19T02:15:33.503Z,81.78
2018-10-19T02:18:37.049Z,81.53
2018-10-19T02:21:40.720Z,82.48
2018-10-19T02:24:44.198Z,81.93
2018-10-19T02:27:47.902Z,82.30
2018-10-19T02:30:51.567Z,82.45
2018-10-19T02:33:55.015Z,82.63
2018-10-19T02:36:58.588Z,83.03
2018-10-19T02:40:02.256Z,83.01
2018-10-19T02:43:06.204Z,82.81
2018-10-19T02:46:09.783Z,82.81
2018-10-19T02:49:13.274Z,82.21
2018-10-19T02:52:16.778Z,82.11
2018-10-19T02:55:20.313Z,82.17
2018-10-19T02:58:23.864Z,82.08
2018-10-19T03:01:27.362Z,83.06
2018-10-19T03:04:30.777Z,82.99
2018-10-19T03:07:34.281Z,82.77
2018-10-19T03:10:37.826Z,82.42
2018-10-19T03:13:41.391Z,81.75
2018-10-19T03:16:45.118Z,81.77
2018-10-19T03:19:48.809Z,81.68
2018-10-19T03:22:52.645Z,82.53
2018-10-19T03:25:56.193Z,82.19
2018-10-19T03:29:03.581Z,83.07
2018-10-19T03:32:07.217Z,82.60
2018-10-19T03:35:10.786Z,83.12
2018-10-19T03:38:14.233Z,82.98
2018-10-19T03:41:17.808Z,82.82
2018-10-19T03:44:21.323Z,83.13
2018-10-19T03:47:24.874Z,83.22
2018-10-19T03:50:28.506Z,83.12
2018-10-19T03:53:32.207Z,83.79
2018-10-19T03:56:35.690Z,83.54
2018-10-19T03:59:44.603Z,83.63
2018-10-19T04:02:48.127Z,83.42
2018-10-19T04:05:51.653Z,83.82
2018-10-19T04:08:57.092Z,83.24
2018-10-19T04:12:00.687Z,83.50
2018-10-19T04:15:05.187Z,83.66
2018-10-19T04:18:08.677Z,83.36
2018-10-19T04:21:29.095Z,83.23
2018-10-19T04:24:39.649Z,82.96
2018-10-19T04:27:49.075Z,82.59
2018-10-19T04:30:54.005Z,82.43
2018-10-19T04:33:58.591Z,82.06
2018-10-19T04:37:05.099Z,81.96
2018-10-19T04:40:17.616Z,82.17
2018-10-19T04:43:21.186Z,82.01
2018-10-19T04:46:24.661Z,82.00
2018-10-19T04:49:30.237Z,82.92
2018-10-19T04:52:40.047Z,83.29
2018-10-19T04:55:43.697Z,83.16
2018-10-19T04:58:47.109Z,83.12
2018-10-19T05:01:50.504Z,83.12
2018-10-19T05:04:54.007Z,83.34
2018-10-19T05:07:57.609Z,83.22
2018-10-19T05:11:01.139Z,83.27
2018-10-19T05:14:04.542Z,83.13
2018-10-19T05:17:09.116Z,83.25
2018-10-19T05:20:13.476Z,82.18
2018-10-19T05:23:16.901Z,82.81
2018-10-19T05:26:24.641Z,82.14
2018-10-19T05:29:28.162Z,82.62
2018-10-19T05:32:31.679Z,82.69
2018-10-19T05:35:35.239Z,81.80
2018-10-19T05:38:38.782Z,81.60
2018-10-19T05:41:42.491Z,82.07
2018-10-19T05:44:45.997Z,82.03
2018-10-19T05:47:49.655Z,81.40
2018-10-19T05:50:53.163Z,81.09
2018-10-19T05:53:56.712Z,80.73
2018-10-19T05:57:00.281Z,80.32
2018-10-19T06:00:03.889Z,80.78
2018-10-19T06:03:08.439Z,81.23
2018-10-19T06:06:12.043Z,81.56
2018-10-19T06:09:15.452Z,81.58
2018-10-19T06:12:18.900Z,81.30
2018-10-19T06:15:22.457Z,80.87
2018-10-19T06:18:25.892Z,80.54
2018-10-19T06:21:29.404Z,80.15
2018-10-19T06:24:32.959Z,80.49
2018-10-19T06:27:36.399Z,80.73
2018-10-19T06:30:39.931Z,80.78
2018-10-19T06:33:43.504Z,81.21
2018-10-19T06:36:46.998Z,81.54
2018-10-19T06:39:50.596Z,81.58
2018-10-19T06:42:54.114Z,80.94
2018-10-19T06:45:57.675Z,81.27
2018-10-19T06:49:01.062Z,81.49
2018-10-19T06:52:04.546Z,80.22
2018-10-19T06:55:09.475Z,81.41
2018-10-19T06:58:13.193Z,82.19
2018-10-19T07:01:16.692Z,82.36
2018-10-19T07:04:20.231Z,82.00
2018-10-19T07:07:23.766Z,82.15
2018-10-19T07:10:27.325Z,82.10
2018-10-19T07:13:30.799Z,82.51
2018-10-19T07:16:34.612Z,82.52
2018-10-19T07:19:38.109Z,81.95
2018-10-19T07:22:41.693Z,82.59
2018-10-19T07:25:45.213Z,82.69
2018-10-19T07:28:48.695Z,81.57
2018-10-19T07:31:52.119Z,83.15
2018-10-19T07:34:55.616Z,82.46
2018-10-19T07:38:00.135Z,83.13
2018-10-19T07:41:03.680Z,83.22
2018-10-19T07:44:07.190Z,82.93
2018-10-19T07:47:10.794Z,83.22
2018-10-19T07:50:14.251Z,82.19
2018-10-19T07:53:17.698Z,83.09
2018-10-19T07:56:21.349Z,82.79
2018-10-19T07:59:24.897Z,82.28
2018-10-19T08:02:28.361Z,81.98
2018-10-19T08:05:32.016Z,81.06
2018-10-19T08:08:35.633Z,81.64
2018-10-19T08:11:39.270Z,81.83
2018-10-19T08:14:42.721Z,81.62
2018-10-19T08:17:46.259Z,80.84
2018-10-19T08:20:49.745Z,79.97
2018-10-19T08:23:54.259Z,79.08
2018-10-19T08:26:57.663Z,78.96
2018-10-19T08:30:01.266Z,78.15
2018-10-19T08:33:04.868Z,78.32
2018-10-19T08:36:08.585Z,78.40
2018-10-19T08:39:12.078Z,78.53
2018-10-19T08:42:15.683Z,78.55
2018-10-19T08:45:19.869Z,78.23
2018-10-19T08:48:23.470Z,78.21
2018-10-19T08:51:27.001Z,78.26
2018-10-19T08:54:30.669Z,77.73
2018-10-19T08:57:34.109Z,76.97
2018-10-19T09:00:37.725Z,75.55
2018-10-19T09:03:41.410Z,74.29
2018-10-19T09:06:44.647Z,73.61
2018-10-19T09:09:48.245Z,73.56
2018-10-19T09:12:51.773Z,73.24
2018-10-19T09:15:55.201Z,72.21
2018-10-19T09:18:58.737Z,70.70
2018-10-19T09:22:02.260Z,70.76
2018-10-19T09:25:05.789Z,70.32
2018-10-19T09:28:09.271Z,69.19
2018-10-19T09:31:12.692Z,69.08
2018-10-19T09:34:16.140Z,69.30
2018-10-19T09:37:19.659Z,68.44
2018-10-19T09:40:23.141Z,68.45
2018-10-19T09:43:26.499Z,67.13
2018-10-19T09:46:30.042Z,67.10
2018-10-19T09:49:33.522Z,65.95
2018-10-19T09:52:36.952Z,66.25
2018-10-19T09:55:40.428Z,66.38
2018-10-19T09:58:43.842Z,65.42
2018-10-19T10:01:47.220Z,65.88
2018-10-19T10:04:50.756Z,65.39
2018-10-19T10:07:54.436Z,63.66
2018-10-19T10:10:57.872Z,64.25
2018-10-19T10:14:01.224Z,63.00
2018-10-19T10:17:05.023Z,63.82
2018-10-19T10:20:08.739Z,63.47
2018-10-19T10:23:12.295Z,63.66
2018-10-19T10:26:15.908Z,63.24
2018-10-19T10:29:19.492Z,62.43
2018-10-19T10:32:23.115Z,63.11
2018-10-19T10:35:26.700Z,62.87
2018-10-19T10:38:30.258Z,63.36
2018-10-19T10:41:33.740Z,62.26
2018-10-19T10:44:37.312Z,62.98
2018-10-19T10:47:40.918Z,62.82
2018-10-19T10:50:44.488Z,63.56
2018-10-19T10:53:48.012Z,63.34
2018-10-19T10:56:51.528Z,62.58
2018-10-19T10:59:56.057Z,62.18
2018-10-19T11:02:59.612Z,62.24
2018-10-19T11:06:03.150Z,62.24
2018-10-19T11:09:09.705Z,62.44
2018-10-19T11:12:13.241Z,62.11
2018-10-19T11:15:16.833Z,61.96
2018-10-19T11:18:20.303Z,60.86
2018-10-19T11:21:23.854Z,60.21
2018-10-19T11:24:27.443Z,60.08
2018-10-19T11:27:30.913Z,58.99
2018-10-19T11:30:34.471Z,58.93
2018-10-19T11:33:37.931Z,60.11
2018-10-19T11:36:41.425Z,59.08
2018-10-19T11:40:48.280Z,59.88
2018-10-19T11:43:51.859Z,59.78
2018-10-19T11:46:59.926Z,60.16
2018-10-19T11:50:03.492Z,59.80
2018-10-19T11:53:07.112Z,60.39
2018-10-19T11:56:10.671Z,59.46
2018-10-19T11:59:14.135Z,59.22
2018-10-19T12:02:17.666Z,58.32
2018-10-19T12:05:21.184Z,59.33
2018-10-19T12:08:24.793Z,59.15
2018-10-19T12:11:28.451Z,59.17
2018-10-19T12:14:31.882Z,58.30
2018-10-19T12:17:35.413Z,58.54
2018-10-19T12:20:38.856Z,57.17
2018-10-19T12:23:42.542Z,57.76
2018-10-19T12:26:46.101Z,57.76
2018-10-19T12:29:49.679Z,57.45
2018-10-19T12:32:53.194Z,56.99
2018-10-19T12:35:56.719Z,56.73
2018-10-19T12:39:00.180Z,57.01
2018-10-19T12:42:03.616Z,57.30
2018-10-19T12:45:18.244Z,56.85
2018-10-19T12:48:21.584Z,56.86
2018-10-19T12:51:26.165Z,57.13
2018-10-19T12:54:29.830Z,57.48
2018-10-19T12:57:33.422Z,57.01
2018-10-19T13:00:36.854Z,56.83
2018-10-19T13:03:40.785Z,56.96
2018-10-19T13:06:44.258Z,57.02
2018-10-19T13:09:47.618Z,56.47
2018-10-19T13:12:53.970Z,56.31
2018-10-19T13:15:57.416Z,56.46
2018-10-19T13:19:00.925Z,56.04
2018-10-19T13:22:04.366Z,55.03
2018-10-19T13:25:07.848Z,55.26
2018-10-19T13:28:11.405Z,54.95
2018-10-19T13:31:14.907Z,55.06
2018-10-19T13:34:18.436Z,55.43
2018-10-19T13:37:21.912Z,54.95
2018-10-19T13:40:25.497Z,53.81
2018-10-19T13:43:28.968Z,53.63
2018-10-19T13:46:32.441Z,53.71
2018-10-19T13:49:35.848Z,54.20
2018-10-19T13:52:39.250Z,54.53
2018-10-19T13:55:42.711Z,55.14
2018-10-19T13:58:46.086Z,54.83
2018-10-19T14:01:49.613Z,54.02
2018-10-19T14:04:53.147Z,53.63
2018-10-19T14:07:56.612Z,52.94
2018-10-19T14:11:00.372Z,51.90
2018-10-19T14:14:03.872Z,51.93
2018-10-19T14:17:07.346Z,51.85
2018-10-19T14:20:12.240Z,51.67
2018-10-19T14:23:15.831Z,51.20
2018-10-19T14:26:19.246Z,51.79
2018-10-19T14:29:22.720Z,52.02
2018-10-19T14:32:26.191Z,53.00
2018-10-19T14:35:29.633Z,52.87
2018-10-19T14:38:33.004Z,53.11
2018-10-19T14:41:36.443Z,53.41
2018-10-19T14:44:40.149Z,53.41
2018-10-19T14:47:44.347Z,53.97
2018-10-19T14:50:47.874Z,54.49
2018-10-19T14:53:51.273Z,54.04
2018-10-19T14:56:54.923Z,54.29
2018-10-19T14:59:58.387Z,54.67
2018-10-19T15:03:01.918Z,54.45
2018-10-19T15:06:05.731Z,54.02
2018-10-19T15:09:10.975Z,54.27
2018-10-19T15:12:14.360Z,54.86
2018-10-19T15:15:21.053Z,55.00
2018-10-19T15:18:24.504Z,54.92
2018-10-19T15:21:27.946Z,55.09
2018-10-19T15:24:31.616Z,55.38
2018-10-19T15:27:35.063Z,55.38
2018-10-19T15:30:38.854Z,55.40
2018-10-19T15:33:42.439Z,55.46
2018-10-19T15:36:45.869Z,55.38
2018-10-19T15:39:49.315Z,55.64
2018-10-19T15:42:52.736Z,56.23
2018-10-19T15:45:56.101Z,56.44
2018-10-19T15:48:59.537Z,56.09
2018-10-19T15:52:03.008Z,56.30
2018-10-19T15:55:06.984Z,56.45
2018-10-19T15:58:10.456Z,56.68
2018-10-19T16:01:13.819Z,57.11
2018-10-19T16:04:17.224Z,57.26
2018-10-19T16:07:20.775Z,57.40
2018-10-19T16:10:24.279Z,57.69
2018-10-19T16:13:27.802Z,57.99
2018-10-19T16:16:31.351Z,58.52
2018-10-19T16:19:34.836Z,58.93
2018-10-19T16:22:38.796Z,59.45
2018-10-19T16:25:42.303Z,59.89
2018-10-19T16:28:45.833Z,59.56
2018-10-19T16:31:50.292Z,60.40
2018-10-19T16:34:53.866Z,61.32
2018-10-19T16:37:57.443Z,61.99
2018-10-19T16:41:00.944Z,62.63
2018-10-19T16:44:04.722Z,63.17
2018-10-19T16:47:08.171Z,63.77
2018-10-19T16:50:12.697Z,64.37
2018-10-19T16:53:16.283Z,64.03
2018-10-19T16:56:19.878Z,63.82
2018-10-19T16:59:23.464Z,64.22
2018-10-19T17:02:26.965Z,64.23
2018-10-19T17:05:30.405Z,64.46
2018-10-19T17:08:33.905Z,64.26
2018-10-19T17:11:37.477Z,64.50
2018-10-19T17:14:41.460Z,64.94
2018-10-19T17:17:45.056Z,64.71
2018-10-19T17:20:48.701Z,64.63
2018-10-19T17:23:53.328Z,64.59
2018-10-19T17:26:56.886Z,65.10
2018-10-19T17:30:01.388Z,64.78
2018-10-19T17:33:05.289Z,64.91
2018-10-19T17:36:08.795Z,65.51
2018-10-19T17:39:12.674Z,66.01
2018-10-19T17:42:16.188Z,66.15
2018-10-19T17:45:19.749Z,66.22
2018-10-19T17:48:23.337Z,66.38
2018-10-19T17:51:27.020Z,66.50
2018-10-19T17:54:30.591Z,66.93
2018-10-19T17:57:38.122Z,67.29
2018-10-19T18:00:41.699Z,67.52
2018-10-19T18:03:46.223Z,67.96
2018-10-19T18:06:49.909Z,67.76
2018-10-19T18:09:54.463Z,68.89
2018-10-19T18:12:58.031Z,69.35
2018-10-19T18:16:01.952Z,69.75
2018-10-19T18:19:06.802Z,70.75
2018-10-19T18:22:10.952Z,70.61
2018-10-19T18:25:14.351Z,71.40
2018-10-19T18:28:17.995Z,70.93
2018-10-19T18:31:21.600Z,71.42
2018-10-19T18:34:25.384Z,71.85
2018-10-19T18:37:29.331Z,71.67
2018-10-19T18:40:33.007Z,71.94
2018-10-19T18:43:37.770Z,72.19
2018-10-19T18:46:41.624Z,72.93
2018-10-19T18:49:45.154Z,73.15
2018-10-19T18:52:48.967Z,72.59
2018-10-19T18:55:52.691Z,73.36
2018-10-19T18:58:56.279Z,72.66
2018-10-19T19:01:59.822Z,73.47
2018-10-19T19:05:03.316Z,74.04
2018-10-19T19:08:06.985Z,73.86
2018-10-19T19:11:10.776Z,73.88
2018-10-19T19:14:15.355Z,74.05
2018-10-19T19:17:18.979Z,74.41
2018-10-19T19:20:25.646Z,73.68
2018-10-19T19:23:29.255Z,74.29
2018-10-19T19:26:32.794Z,74.81
2018-10-19T19:29:36.312Z,74.52
2018-10-19T19:32:48.363Z,74.28
2018-10-19T19:35:51.973Z,74.49
2018-10-19T19:38:56.007Z,75.36
2018-10-19T19:42:07.028Z,75.62
2018-10-19T19:45:13.775Z,75.88
2018-10-19T19:48:22.517Z,75.48
2018-10-19T19:51:25.934Z,75.28
2018-10-19T19:54:29.481Z,75.31
2018-10-19T19:57:32.982Z,75.26
2018-10-19T20:00:36.478Z,75.09
2018-10-19T20:03:39.879Z,75.56
2018-10-19T20:06:43.345Z,75.28
2018-10-19T20:09:47.263Z,75.25
2018-10-19T20:12:50.781Z,75.57
2018-10-19T20:15:54.345Z,74.76
2018-10-19T20:18:58.064Z,75.56
2018-10-19T20:22:01.668Z,75.67
2018-10-19T20:25:07.246Z,75.44
2018-10-19T20:28:10.778Z,75.69
2018-10-19T20:31:14.283Z,75.63
2018-10-19T20:34:17.882Z,75.55
2018-10-19T20:37:21.373Z,75.63
2018-10-19T20:40:25.100Z,77.09
2018-10-19T20:43:28.571Z,76.72
2018-10-19T20:46:32.143Z,76.46
2018-10-19T20:49:35.693Z,77.20
2018-10-19T20:52:39.565Z,78.19
2018-10-19T20:55:43.253Z,78.17
2018-10-19T20:58:47.099Z,78.03
2018-10-19T21:01:50.634Z,78.01
2018-10-19T21:04:54.259Z,76.79
2018-10-19T21:07:58.209Z,77.75
2018-10-19T21:11:02.787Z,78.58
2018-10-19T21:14:06.877Z,78.24
2018-10-19T21:17:10.409Z,77.85
2018-10-19T21:20:13.980Z,77.53
2018-10-19T21:23:17.505Z,77.57
2018-10-19T21:26:24.911Z,77.70
2018-10-19T21:29:30.465Z,78.20
2018-10-19T21:32:33.962Z,78.25
2018-10-19T21:35:38.470Z,78.40
2018-10-19T21:38:41.956Z,78.42
2018-10-19T21:41:45.646Z,78.37
2018-10-19T21:44:49.304Z,78.73
2018-10-19T21:47:52.927Z,79.17
2018-10-19T21:50:56.530Z,79.44
2018-10-19T21:54:00.163Z,79.57
2018-10-19T21:57:03.950Z,79.47
2018-10-19T22:00:09.256Z,79.83
2018-10-19T22:03:12.781Z,79.65
2018-10-19T22:06:16.288Z,79.54
2018-10-19T22:09:19.762Z,79.48
2018-10-19T22:12:23.701Z,79.39
2018-10-19T22:15:27.153Z,80.16
2018-10-19T22:18:30.709Z,80.25
2018-10-19T22:21:34.252Z,80.53
2018-10-19T22:24:37.767Z,80.85
2018-10-19T22:27:41.369Z,80.10
2018-10-19T22:30:44.893Z,80.09
2018-10-19T22:33:48.373Z,80.02
2018-10-19T22:36:51.908Z,80.36
2018-10-19T22:39:55.494Z,80.90
2018-10-19T22:42:59.000Z,80.48
2018-10-19T22:46:02.578Z,80.30
2018-10-19T22:49:06.158Z,79.91
2018-10-19T22:52:09.754Z,79.87
2018-10-19T22:55:13.336Z,80.33
2018-10-19T22:58:16.831Z,81.22
2018-10-19T23:01:20.366Z,80.09
2018-10-19T23:04:23.864Z,81.62
2018-10-19T23:07:27.414Z,81.05
2018-10-19T23:10:32.037Z,81.45
2018-10-19T23:13:35.577Z,81.06
2018-10-19T23:16:39.114Z,80.98
2018-10-19T23:19:42.569Z,81.56
2018-10-19T23:22:46.321Z,82.12
2018-10-19T23:25:49.866Z,82.82
2018-10-19T23:28:53.431Z,82.64
2018-10-19T23:31:57.902Z,83.14
2018-10-19T23:35:03.422Z,82.57
2018-10-19T23:38:07.012Z,81.30
2018-10-19T23:41:10.588Z,81.42
2018-10-19T23:44:15.089Z,81.49
2018-10-19T23:47:18.671Z,80.95
2018-10-19T23:50:22.255Z,80.56
2018-10-19T23:53:25.693Z,79.48
2018-10-19T23:56:29.448Z,79.62
2018-10-19T23:59:32.927Z,79.39
